createdAt,value
2023-05-22T00:01:03.607Z,17.36
2023-05-22T00:03:36.011Z,17.40
2023-05-22T00:06:08.385Z,17.34
2023-05-22T00:08:40.554Z,17.27
2023-05-22T00:11:31.078Z,17.29
2023-05-22T00:14:01.996Z,17.26
2023-05-22T00:16:34.389Z,17.24
2023-05-22T00:19:06.753Z,17.27
2023-05-22T00:21:40.450Z,17.23
2023-05-22T00:24:13.104Z,17.18
2023-05-22T00:26:44.935Z,17.09
2023-05-22T00:29:16.728Z,17.00
2023-05-22T00:31:48.090Z,17.00
2023-05-22T00:34:22.919Z,16.99
2023-05-22T00:36:53.924Z,16.92
2023-05-22T00:39:25.699Z,16.90
2023-05-22T00:41:57.194Z,16.86
2023-05-22T00:44:28.944Z,16.90
2023-05-22T00:47:00.650Z,16.90
2023-05-22T00:49:32.406Z,16.89
2023-05-22T00:52:03.917Z,16.89
2023-05-22T00:54:37.199Z,16.83
2023-05-22T00:57:09.360Z,16.85
2023-05-22T00:59:40.457Z,16.80
2023-05-22T01:02:12.867Z,16.80
2023-05-22T01:04:51.175Z,16.83
2023-05-22T01:07:23.658Z,16.79
2023-05-22T01:09:54.691Z,16.72
2023-05-22T01:12:51.191Z,16.69
2023-05-22T01:15:43.347Z,16.68
2023-05-22T01:18:32.469Z,16.68
2023-05-22T01:21:38.619Z,16.69
2023-05-22T01:24:33.587Z,16.76
2023-05-22T01:27:05.572Z,16.64
2023-05-22T01:29:47.441Z,16.67
2023-05-22T01:32:23.386Z,16.65
2023-05-22T01:34:58.252Z,16.68
2023-05-22T01:37:30.574Z,16.67
2023-05-22T01:40:01.339Z,16.80
2023-05-22T01:42:32.670Z,16.85
2023-05-22T01:45:04.278Z,16.83
2023-05-22T01:47:35.539Z,16.80
2023-05-22T01:50:07.381Z,16.82
2023-05-22T01:52:39.262Z,16.80
2023-05-22T01:55:19.692Z,16.85
2023-05-22T01:58:01.940Z,16.89
2023-05-22T02:00:34.762Z,16.88
2023-05-22T02:03:19.213Z,16.86
2023-05-22T02:05:55.748Z,16.86
2023-05-22T02:08:27.247Z,16.85
2023-05-22T02:10:59.553Z,16.78
2023-05-22T02:13:30.530Z,16.72
2023-05-22T02:16:02.241Z,16.72
2023-05-22T02:18:32.960Z,16.73
2023-05-22T02:21:04.588Z,16.72
2023-05-22T02:23:34.958Z,16.71
2023-05-22T02:26:06.064Z,16.68
2023-05-22T02:28:36.678Z,16.65
2023-05-22T02:31:07.072Z,16.62
2023-05-22T02:33:37.925Z,16.55
2023-05-22T02:36:12.045Z,16.52
2023-05-22T02:38:42.363Z,16.52
2023-05-22T02:41:12.816Z,16.51
2023-05-22T02:43:43.024Z,16.51
2023-05-22T02:46:13.367Z,16.57
2023-05-22T02:48:43.889Z,16.57
2023-05-22T02:51:14.140Z,16.55
2023-05-22T02:53:44.271Z,16.45
2023-05-22T02:56:14.799Z,16.45
2023-05-22T02:58:44.987Z,16.42
2023-05-22T03:01:15.135Z,16.41
2023-05-22T03:03:45.589Z,16.38
2023-05-22T03:06:16.802Z,16.22
2023-05-22T03:08:49.498Z,16.14
2023-05-22T03:11:19.160Z,16.13
2023-05-22T03:13:49.220Z,16.17
2023-05-22T03:16:19.684Z,16.18
2023-05-22T03:19:10.102Z,16.22
2023-05-22T03:21:41.828Z,16.18
2023-05-22T03:24:13.737Z,16.16
2023-05-22T03:26:45.077Z,16.17
2023-05-22T03:29:21.818Z,16.16
2023-05-22T03:31:52.398Z,16.17
2023-05-22T03:34:23.805Z,16.18
2023-05-22T03:36:54.352Z,16.17
2023-05-22T03:39:24.602Z,16.20
2023-05-22T03:42:01.112Z,16.21
2023-05-22T03:44:32.181Z,16.21
2023-05-22T03:47:03.512Z,16.21
2023-05-22T03:49:35.222Z,16.22
2023-05-22T03:52:07.576Z,16.14
2023-05-22T03:54:37.709Z,16.09
2023-05-22T03:57:08.559Z,16.07
2023-05-22T03:59:39.051Z,16.13
2023-05-22T04:02:09.427Z,16.16
2023-05-22T04:04:40.116Z,16.16
2023-05-22T04:07:10.612Z,16.16
2023-05-22T04:09:42.400Z,16.11
2023-05-22T04:12:12.825Z,16.14
2023-05-22T04:14:42.969Z,16.16
2023-05-22T04:17:13.158Z,16.14
2023-05-22T04:19:43.512Z,16.13
2023-05-22T04:22:14.052Z,16.18
2023-05-22T04:24:50.987Z,16.22
2023-05-22T04:27:23.742Z,16.24
2023-05-22T04:29:54.787Z,16.38
2023-05-22T04:32:27.635Z,16.54
2023-05-22T04:35:01.680Z,16.55
2023-05-22T04:37:32.904Z,16.54
2023-05-22T04:40:08.639Z,16.61
2023-05-22T04:42:43.993Z,16.67
2023-05-22T04:45:15.180Z,16.59
2023-05-22T04:47:45.705Z,16.52
2023-05-22T04:50:16.020Z,16.48
2023-05-22T04:52:46.420Z,16.52
2023-05-22T04:55:17.828Z,16.57
2023-05-22T04:57:48.547Z,16.54
2023-05-22T05:00:19.127Z,16.45
2023-05-22T05:02:51.004Z,16.41
2023-05-22T05:05:21.225Z,16.35
2023-05-22T05:07:52.962Z,16.35
2023-05-22T05:10:23.396Z,16.34
2023-05-22T05:12:55.022Z,16.30
2023-05-22T05:15:25.261Z,16.28
2023-05-22T05:17:55.791Z,16.31
2023-05-22T05:20:26.130Z,16.34
2023-05-22T05:22:57.562Z,16.35
2023-05-22T05:25:27.832Z,16.38
2023-05-22T05:27:58.910Z,16.34
2023-05-22T05:30:31.262Z,16.34
2023-05-22T05:33:21.676Z,16.31
2023-05-22T05:36:27.065Z,16.31
2023-05-22T05:38:59.646Z,16.34
2023-05-22T05:41:30.418Z,16.34
2023-05-22T05:44:05.820Z,16.34
2023-05-22T05:46:37.105Z,16.30
2023-05-22T05:49:12.396Z,16.28
2023-05-22T05:51:43.744Z,16.21
2023-05-22T05:54:14.674Z,16.21
2023-05-22T05:56:45.128Z,16.22
2023-05-22T05:59:16.083Z,16.31
2023-05-22T06:02:09.964Z,16.51
2023-05-22T06:04:41.362Z,16.55
2023-05-22T06:07:14.568Z,16.54
2023-05-22T06:09:50.080Z,16.44
2023-05-22T06:12:33.197Z,16.37
2023-05-22T06:15:03.545Z,16.32
2023-05-22T06:17:33.842Z,16.30
2023-05-22T06:20:06.615Z,16.31
2023-05-22T06:22:37.810Z,16.32
2023-05-22T06:25:08.653Z,16.27
2023-05-22T06:27:40.279Z,16.31
2023-05-22T06:30:11.446Z,16.28
2023-05-22T06:32:42.577Z,16.24
2023-05-22T06:35:13.651Z,16.25
2023-05-22T06:37:44.361Z,16.28
2023-05-22T06:40:15.047Z,16.32
2023-05-22T06:42:52.269Z,16.27
2023-05-22T06:45:48.729Z,16.28
2023-05-22T06:48:42.014Z,16.28
2023-05-22T06:51:17.917Z,16.28
2023-05-22T06:53:53.258Z,16.30
2023-05-22T06:56:29.180Z,16.27
2023-05-22T06:59:07.833Z,16.30
2023-05-22T07:02:00.614Z,16.30
2023-05-22T07:04:58.132Z,16.28
2023-05-22T07:07:41.523Z,16.24
2023-05-22T07:12:56.729Z,16.24
2023-05-22T07:15:27.942Z,16.21
2023-05-22T07:18:01.541Z,16.16
2023-05-22T07:20:33.095Z,16.09
2023-05-22T07:23:13.349Z,16.09
2023-05-22T07:25:44.872Z,16.07
2023-05-22T07:28:17.181Z,16.10
2023-05-22T07:30:56.575Z,16.13
2023-05-22T07:33:30.329Z,16.14
2023-05-22T07:36:00.691Z,16.11
2023-05-22T07:38:33.259Z,16.09
2023-05-22T07:41:06.033Z,16.04
2023-05-22T07:43:37.375Z,16.03
2023-05-22T07:46:08.646Z,16.07
2023-05-22T07:48:52.663Z,16.06
2023-05-22T07:51:22.843Z,16.01
2023-05-22T07:53:56.029Z,16.01
2023-05-22T07:56:26.979Z,16.00
2023-05-22T07:58:58.565Z,15.96
2023-05-22T08:01:28.759Z,15.99
2023-05-22T08:03:59.221Z,15.99
2023-05-22T08:06:30.945Z,15.96
2023-05-22T08:09:01.499Z,15.99
2023-05-22T08:11:31.787Z,16.00
2023-05-22T08:14:02.086Z,16.00
2023-05-22T08:16:33.283Z,16.04
2023-05-22T08:19:04.526Z,16.07
2023-05-22T08:21:35.593Z,16.03
2023-05-22T08:24:05.990Z,16.06
2023-05-22T08:26:36.419Z,16.04
2023-05-22T08:29:06.716Z,16.04
2023-05-22T08:31:37.144Z,16.07
2023-05-22T08:34:08.502Z,16.09
2023-05-22T08:36:38.575Z,16.10
2023-05-22T08:39:09.922Z,16.04
2023-05-22T08:41:40.634Z,16.01
2023-05-22T08:44:12.358Z,16.03
2023-05-22T08:46:48.506Z,16.01
2023-05-22T08:49:23.647Z,16.03
2023-05-22T08:52:04.570Z,16.03
2023-05-22T08:54:38.096Z,16.03
2023-05-22T08:57:08.462Z,16.03
2023-05-22T08:59:42.620Z,16.01
2023-05-22T09:02:15.428Z,16.06
2023-05-22T09:04:46.031Z,16.07
2023-05-22T09:07:16.280Z,16.04
2023-05-22T09:09:46.576Z,16.04
2023-05-22T09:12:17.020Z,16.06
2023-05-22T09:14:47.490Z,16.06
2023-05-22T09:17:18.499Z,16.01
2023-05-22T09:19:49.325Z,15.96
2023-05-22T09:22:22.401Z,15.94
2023-05-22T09:24:54.830Z,15.89
2023-05-22T09:27:25.589Z,15.86
2023-05-22T09:29:59.350Z,15.83
2023-05-22T09:32:33.674Z,15.79
2023-05-22T09:35:07.514Z,15.79
2023-05-22T09:37:38.861Z,15.79
2023-05-22T09:40:12.313Z,15.76
2023-05-22T09:42:46.893Z,15.78
2023-05-22T09:45:25.221Z,15.82
2023-05-22T09:47:55.749Z,15.82
2023-05-22T09:50:26.193Z,15.78
2023-05-22T09:52:57.969Z,15.80
2023-05-22T09:55:29.638Z,15.83
2023-05-22T09:58:04.496Z,15.86
2023-05-22T10:00:38.051Z,15.90
2023-05-22T10:03:17.189Z,15.87
2023-05-22T10:05:53.806Z,15.86
2023-05-22T10:08:27.515Z,15.86
2023-05-22T10:10:59.787Z,15.87
2023-05-22T10:13:31.739Z,15.83
2023-05-22T10:16:04.491Z,15.82
2023-05-22T10:18:35.568Z,15.79
2023-05-22T10:21:05.968Z,15.80
2023-05-22T10:23:38.319Z,15.80
2023-05-22T10:26:10.169Z,15.73
2023-05-22T10:28:44.602Z,15.70
2023-05-22T10:31:50.565Z,15.67
2023-05-22T10:34:41.543Z,15.63
2023-05-22T10:37:44.586Z,15.63
2023-05-22T10:40:31.464Z,15.69
2023-05-22T10:43:02.683Z,15.79
2023-05-22T10:45:37.769Z,15.90
2023-05-22T10:48:10.254Z,16.01
2023-05-22T10:50:42.254Z,16.09
2023-05-22T10:53:29.403Z,16.22
2023-05-22T10:56:03.920Z,16.27
2023-05-22T10:58:40.933Z,16.30
2023-05-22T11:01:19.126Z,16.37
2023-05-22T11:04:06.931Z,16.41
2023-05-22T11:06:47.279Z,16.45
2023-05-22T11:09:31.036Z,16.52
2023-05-22T11:12:29.592Z,16.68
2023-05-22T11:15:11.617Z,16.75
2023-05-22T11:17:44.130Z,16.78
2023-05-22T11:20:20.298Z,16.82
2023-05-22T11:23:08.459Z,16.85
2023-05-22T11:25:41.668Z,16.88
2023-05-22T11:28:13.568Z,16.95
2023-05-22T11:30:45.273Z,16.98
2023-05-22T11:33:17.073Z,17.08
2023-05-22T11:35:49.738Z,17.23
2023-05-22T11:38:21.102Z,17.31
2023-05-22T11:40:54.431Z,17.37
2023-05-22T11:43:34.240Z,17.51
2023-05-22T11:46:12.371Z,17.74
2023-05-22T11:48:44.240Z,18.01
2023-05-22T11:51:14.984Z,18.28
2023-05-22T11:53:45.320Z,18.84
2023-05-22T11:56:15.697Z,19.35
2023-05-22T11:58:45.942Z,19.44
2023-05-22T12:01:16.524Z,19.65
2023-05-22T12:03:46.882Z,19.72
2023-05-22T12:06:18.657Z,19.66
2023-05-22T12:08:48.975Z,19.85
2023-05-22T12:11:19.427Z,20.00
2023-05-22T12:13:53.298Z,20.34
2023-05-22T12:16:24.084Z,21.06
2023-05-22T12:18:55.428Z,21.09
2023-05-22T12:21:26.773Z,21.26
2023-05-22T12:23:57.649Z,21.23
2023-05-22T12:26:27.965Z,20.74
2023-05-22T12:29:02.121Z,20.40
2023-05-22T12:31:39.680Z,20.44
2023-05-22T12:34:10.126Z,20.40
2023-05-22T12:36:44.475Z,20.30
2023-05-22T12:39:18.816Z,20.33
2023-05-22T12:41:49.658Z,20.23
2023-05-22T12:44:19.860Z,20.14
2023-05-22T12:46:50.114Z,20.07
2023-05-22T12:49:20.463Z,20.09
2023-05-22T12:51:50.736Z,20.23
2023-05-22T12:54:20.859Z,20.57
2023-05-22T12:56:50.860Z,20.89
2023-05-22T12:59:21.082Z,20.52
2023-05-22T13:01:51.472Z,20.52
2023-05-22T13:04:21.915Z,20.51
2023-05-22T13:06:52.106Z,21.18
2023-05-22T13:09:22.930Z,22.18
2023-05-22T13:11:53.259Z,22.70
2023-05-22T13:14:23.631Z,22.49
2023-05-22T13:16:54.727Z,22.25
2023-05-22T13:19:25.139Z,22.45
2023-05-22T13:21:56.306Z,22.39
2023-05-22T13:24:26.778Z,22.53
2023-05-22T13:26:57.029Z,23.22
2023-05-22T13:29:27.176Z,23.21
2023-05-22T13:31:57.555Z,23.04
2023-05-22T13:34:27.757Z,22.93
2023-05-22T13:36:58.185Z,22.83
2023-05-22T13:39:28.492Z,23.17
2023-05-22T13:41:58.839Z,23.34
2023-05-22T13:44:30.096Z,23.62
2023-05-22T13:47:00.952Z,23.79
2023-05-22T13:49:31.481Z,24.23
2023-05-22T13:52:01.961Z,24.60
2023-05-22T13:54:32.156Z,24.41
2023-05-22T13:57:03.728Z,23.62
2023-05-22T13:59:34.405Z,23.95
2023-05-22T14:02:04.757Z,23.54
2023-05-22T14:04:35.305Z,24.29
2023-05-22T14:07:05.910Z,24.27
2023-05-22T14:09:36.179Z,23.92
2023-05-22T14:12:06.614Z,23.28
2023-05-22T14:14:37.245Z,23.45
2023-05-22T14:17:09.820Z,23.01
2023-05-22T14:19:41.260Z,23.38
2023-05-22T14:22:11.452Z,23.88
2023-05-22T14:24:42.084Z,23.81
2023-05-22T14:27:12.478Z,24.17
2023-05-22T14:29:42.795Z,24.64
2023-05-22T14:32:12.941Z,24.96
2023-05-22T14:34:42.846Z,25.09
2023-05-22T14:37:13.165Z,25.51
2023-05-22T14:39:43.302Z,25.69
2023-05-22T14:42:13.711Z,26.71
2023-05-22T14:44:43.934Z,27.27
2023-05-22T14:47:14.277Z,27.65
2023-05-22T14:49:44.494Z,27.23
2023-05-22T14:52:15.162Z,27.67
2023-05-22T14:54:45.379Z,27.69
2023-05-22T14:57:15.811Z,27.77
2023-05-22T14:59:46.011Z,27.62
2023-05-22T15:02:16.537Z,27.67
2023-05-22T15:04:47.463Z,27.69
2023-05-22T15:07:18.077Z,27.59
2023-05-22T15:09:48.320Z,27.82
2023-05-22T15:12:18.976Z,28.10
2023-05-22T15:14:50.047Z,28.01
2023-05-22T15:17:20.293Z,27.71
2023-05-22T15:19:50.891Z,27.51
2023-05-22T15:22:21.213Z,27.23
2023-05-22T15:25:08.386Z,28.02
2023-05-22T15:27:40.930Z,27.85
2023-05-22T15:30:11.581Z,27.91
2023-05-22T15:32:43.233Z,28.35
2023-05-22T15:35:17.197Z,28.33
2023-05-22T15:37:47.798Z,27.71
2023-05-22T15:40:23.562Z,26.85
2023-05-22T15:42:54.824Z,26.69
2023-05-22T15:45:25.005Z,26.24
2023-05-22T15:47:56.314Z,26.56
2023-05-22T15:50:26.588Z,27.36
2023-05-22T15:52:57.097Z,27.81
2023-05-22T15:55:27.448Z,28.42
2023-05-22T15:57:59.770Z,28.42
2023-05-22T16:00:30.496Z,27.74
2023-05-22T16:03:01.460Z,27.10
2023-05-22T16:05:35.997Z,26.82
2023-05-22T16:08:12.897Z,26.71
2023-05-22T16:10:48.293Z,26.69
2023-05-22T16:13:18.757Z,26.63
2023-05-22T16:15:49.209Z,26.75
2023-05-22T16:18:21.774Z,26.79
2023-05-22T16:20:53.327Z,27.29
2023-05-22T16:23:23.631Z,27.69
2023-05-22T16:25:54.036Z,27.48
2023-05-22T16:28:24.264Z,27.11
2023-05-22T16:30:54.413Z,26.69
2023-05-22T16:33:26.223Z,26.60
2023-05-22T16:35:56.376Z,26.71
2023-05-22T16:38:26.789Z,26.75
2023-05-22T16:40:56.960Z,26.73
2023-05-22T16:43:27.315Z,26.69
2023-05-22T16:45:57.561Z,27.17
2023-05-22T16:48:27.753Z,27.78
2023-05-22T16:50:58.186Z,27.74
2023-05-22T16:53:28.423Z,27.94
2023-05-22T16:55:58.619Z,28.45
2023-05-22T16:58:28.981Z,27.86
2023-05-22T17:00:59.395Z,27.46
2023-05-22T17:03:29.811Z,27.59
2023-05-22T17:06:00.336Z,27.23
2023-05-22T17:08:30.895Z,26.44
2023-05-22T17:11:01.240Z,25.79
2023-05-22T17:13:31.670Z,25.66
2023-05-22T17:16:01.859Z,25.58
2023-05-22T17:18:32.289Z,25.49
2023-05-22T17:21:02.609Z,25.49
2023-05-22T17:23:32.801Z,25.73
2023-05-22T17:26:03.269Z,26.73
2023-05-22T17:28:33.734Z,26.45
2023-05-22T17:31:04.094Z,26.01
2023-05-22T17:33:34.914Z,25.74
2023-05-22T17:36:05.201Z,26.72
2023-05-22T17:38:35.366Z,27.13
2023-05-22T17:41:05.517Z,26.49
2023-05-22T17:43:36.401Z,25.81
2023-05-22T17:46:07.834Z,25.88
2023-05-22T17:48:38.113Z,25.77
2023-05-22T17:51:08.246Z,25.83
2023-05-22T17:53:39.263Z,26.16
2023-05-22T17:56:09.699Z,26.32
2023-05-22T17:58:39.843Z,26.87
2023-05-22T18:01:09.808Z,27.43
2023-05-22T18:03:39.982Z,27.18
2023-05-22T18:06:10.340Z,27.00
2023-05-22T18:08:42.166Z,26.99
2023-05-22T18:11:13.116Z,26.51
2023-05-22T18:13:43.349Z,26.68
2023-05-22T18:16:13.436Z,26.66
2023-05-22T18:18:43.642Z,26.72
2023-05-22T18:21:13.886Z,26.78
2023-05-22T18:23:43.844Z,26.86
2023-05-22T18:26:13.827Z,26.28
2023-05-22T18:28:43.780Z,26.32
2023-05-22T18:31:13.801Z,26.37
2023-05-22T18:33:45.979Z,25.97
2023-05-22T18:36:19.376Z,26.42
2023-05-22T18:38:49.616Z,25.94
2023-05-22T18:41:20.373Z,25.71
2023-05-22T18:43:50.455Z,26.42
2023-05-22T18:46:20.852Z,27.17
2023-05-22T18:48:51.597Z,26.71
2023-05-22T18:51:21.928Z,25.81
2023-05-22T18:53:53.043Z,25.51
2023-05-22T18:56:23.292Z,25.47
2023-05-22T18:58:53.569Z,25.07
2023-05-22T19:01:23.799Z,25.11
2023-05-22T19:03:54.168Z,25.25
2023-05-22T19:06:24.711Z,25.25
2023-05-22T19:08:55.135Z,24.84
2023-05-22T19:11:25.410Z,24.72
2023-05-22T19:13:56.888Z,24.88
2023-05-22T19:16:27.166Z,24.89
2023-05-22T19:18:57.671Z,24.92
2023-05-22T19:21:27.980Z,24.87
2023-05-22T19:23:58.141Z,24.78
2023-05-22T19:26:28.458Z,24.77
2023-05-22T19:29:00.583Z,24.65
2023-05-22T19:31:31.769Z,24.57
2023-05-22T19:34:02.045Z,24.43
2023-05-22T19:36:32.811Z,24.29
2023-05-22T19:39:03.002Z,24.41
2023-05-22T19:41:33.258Z,24.41
2023-05-22T19:44:03.758Z,24.44
2023-05-22T19:46:34.057Z,24.05
2023-05-22T19:49:04.334Z,23.58
2023-05-22T19:51:34.779Z,23.28
2023-05-22T19:54:05.492Z,23.04
2023-05-22T19:56:36.862Z,22.86
2023-05-22T19:59:07.033Z,22.74
2023-05-22T20:01:37.451Z,22.52
2023-05-22T20:04:07.844Z,22.26
2023-05-22T20:06:38.269Z,22.21
2023-05-22T20:09:08.446Z,22.15
2023-05-22T20:11:38.772Z,22.11
2023-05-22T20:14:09.490Z,21.97
2023-05-22T20:16:40.023Z,21.91
2023-05-22T20:19:10.457Z,21.84
2023-05-22T20:21:41.034Z,21.80
2023-05-22T20:24:18.598Z,21.65
2023-05-22T20:26:49.586Z,21.57
2023-05-22T20:29:19.841Z,21.54
2023-05-22T20:31:51.848Z,21.53
2023-05-22T20:34:22.040Z,21.47
2023-05-22T20:36:54.613Z,21.50
2023-05-22T20:39:24.914Z,21.39
2023-05-22T20:41:55.628Z,21.33
2023-05-22T20:44:26.020Z,21.29
2023-05-22T20:46:56.655Z,21.34
2023-05-22T20:49:27.316Z,21.36
2023-05-22T20:52:01.109Z,21.30
2023-05-22T20:54:35.401Z,21.29
2023-05-22T20:57:06.886Z,21.12
2023-05-22T20:59:38.695Z,21.03
2023-05-22T21:02:09.269Z,20.98
2023-05-22T21:04:39.475Z,20.86
2023-05-22T21:07:09.785Z,20.81
2023-05-22T21:09:39.979Z,20.75
2023-05-22T21:12:10.464Z,20.67
2023-05-22T21:14:41.539Z,20.49
2023-05-22T21:17:12.136Z,20.35
2023-05-22T21:19:42.497Z,20.20
2023-05-22T21:22:12.649Z,20.06
2023-05-22T21:24:43.045Z,19.87
2023-05-22T21:27:13.331Z,19.77
2023-05-22T21:29:43.515Z,19.67
2023-05-22T21:32:15.363Z,19.56
2023-05-22T21:34:45.727Z,19.46
2023-05-22T21:37:16.163Z,19.39
2023-05-22T21:39:46.406Z,19.27
2023-05-22T21:42:17.727Z,19.14
2023-05-22T21:44:47.896Z,18.94
2023-05-22T21:47:19.252Z,18.59
2023-05-22T21:49:49.570Z,18.55
2023-05-22T21:52:19.914Z,18.49
2023-05-22T21:54:50.290Z,18.57
2023-05-22T21:57:20.496Z,18.53
2023-05-22T21:59:52.112Z,18.39
2023-05-22T22:02:22.746Z,18.24
2023-05-22T22:04:53.239Z,18.18
2023-05-22T22:07:23.479Z,18.16
2023-05-22T22:09:53.696Z,18.05
2023-05-22T22:12:24.012Z,18.04
2023-05-22T22:14:54.254Z,18.01
2023-05-22T22:17:24.551Z,17.97
2023-05-22T22:19:58.532Z,17.88
2023-05-22T22:22:28.637Z,17.77
2023-05-22T22:24:58.881Z,17.63
2023-05-22T22:27:29.059Z,17.58
2023-05-22T22:29:59.172Z,17.57
2023-05-22T22:32:29.523Z,17.53
2023-05-22T22:34:59.653Z,17.57
2023-05-22T22:37:29.620Z,17.55
2023-05-22T22:40:00.685Z,17.51
2023-05-22T22:42:30.808Z,17.44
2023-05-22T22:45:02.506Z,17.33
2023-05-22T22:47:34.003Z,17.24
2023-05-22T22:50:14.085Z,17.19
2023-05-22T22:52:48.328Z,17.23
2023-05-22T22:55:18.973Z,17.22
2023-05-22T22:57:51.177Z,17.19
2023-05-22T23:00:21.793Z,17.08
2023-05-22T23:02:51.946Z,16.99
2023-05-22T23:05:22.501Z,16.92
2023-05-22T23:07:52.606Z,16.88
2023-05-22T23:10:23.625Z,16.86
2023-05-22T23:12:54.016Z,16.79
2023-05-22T23:15:24.444Z,16.78
2023-05-22T23:17:55.656Z,16.71
2023-05-22T23:20:25.936Z,16.61
2023-05-22T23:22:56.552Z,16.64
2023-05-22T23:25:27.593Z,16.61
2023-05-22T23:27:59.016Z,16.67
2023-05-22T23:30:30.730Z,16.65
2023-05-22T23:33:21.645Z,16.68
2023-05-22T23:35:52.409Z,16.69
2023-05-22T23:38:23.518Z,16.71
2023-05-22T23:40:54.068Z,16.72
2023-05-22T23:43:25.658Z,16.64
2023-05-22T23:45:57.903Z,16.52
2023-05-22T23:48:32.534Z,16.47
2023-05-22T23:51:06.480Z,16.38
2023-05-22T23:53:40.929Z,16.32
2023-05-22T23:56:12.216Z,16.27
2023-05-22T23:58:43.729Z,16.16
